createdAt,value
2023-04-28T00:00:29.226Z,2.60
2023-04-28T00:02:59.560Z,3.00
2023-04-28T00:07:54.052Z,2.90
2023-04-28T00:10:21.090Z,2.80
2023-04-28T00:12:48.047Z,3.20
2023-04-28T00:15:15.702Z,3.00
2023-04-28T00:17:43.457Z,2.00
2023-04-28T00:20:11.650Z,3.40
2023-04-28T00:22:38.531Z,3.10
2023-04-28T00:25:06.862Z,3.60
2023-04-28T00:27:36.697Z,2.60
2023-04-28T00:30:04.156Z,3.70
2023-04-28T00:32:31.227Z,2.50
2023-04-28T00:34:58.246Z,1.80
2023-04-28T00:37:25.673Z,3.40
2023-04-28T00:40:02.242Z,3.00
2023-04-28T00:42:29.187Z,3.20
2023-04-28T00:44:56.232Z,2.20
2023-04-28T00:47:23.319Z,2.80
2023-04-28T00:49:52.407Z,2.60
2023-04-28T00:52:19.350Z,2.50
2023-04-28T00:54:48.007Z,3.80
2023-04-28T00:57:15.056Z,2.60
2023-04-28T00:59:42.103Z,5.00
2023-04-28T01:02:08.932Z,3.90
2023-04-28T01:04:42.327Z,3.20
2023-04-28T01:07:09.598Z,2.40
2023-04-28T01:09:36.881Z,4.30
2023-04-28T01:12:05.059Z,2.90
2023-04-28T01:14:43.430Z,3.20
2023-04-28T01:17:10.641Z,2.70
2023-04-28T01:19:38.240Z,2.70
2023-04-28T01:22:05.543Z,3.40
2023-04-28T01:24:32.753Z,2.70
2023-04-28T01:27:03.175Z,3.00
2023-04-28T01:29:30.144Z,3.10
2023-04-28T01:31:57.431Z,3.60
2023-04-28T01:34:27.254Z,3.20
2023-04-28T01:36:54.121Z,2.60
2023-04-28T01:39:21.182Z,2.40
2023-04-28T01:41:48.047Z,4.40
2023-04-28T01:44:15.115Z,3.60
2023-04-28T01:46:42.301Z,3.90
2023-04-28T01:49:12.129Z,3.30
2023-04-28T01:51:41.800Z,3.20
2023-04-28T01:54:08.793Z,4.10
2023-04-28T01:56:38.724Z,4.10
2023-04-28T05:08:45.349Z,2.90
2023-04-28T08:12:08.325Z,1.10
2023-04-28T08:23:23.449Z,3.00
2023-04-28T08:30:10.829Z,1.90
2023-04-28T09:21:09.346Z,2.60
2023-04-28T09:28:22.452Z,2.70
2023-04-28T09:31:25.112Z,1.80
2023-04-28T09:38:45.066Z,1.50
2023-04-28T09:51:03.693Z,1.50
2023-04-28T09:53:30.697Z,1.20
2023-04-28T10:04:47.700Z,1.30
2023-04-28T11:19:37.118Z,0.80
2023-04-28T11:49:05.739Z,2.60
2023-04-28T12:23:05.145Z,1.40
2023-04-28T12:34:46.254Z,2.10
2023-04-28T12:41:58.730Z,1.90
2023-04-28T12:49:09.044Z,1.80
2023-04-28T12:56:20.262Z,1.60
2023-04-28T13:03:30.302Z,1.70
2023-04-28T13:10:41.275Z,1.80
2023-04-28T14:57:01.439Z,5.30
2023-04-28T15:35:33.162Z,2.20
2023-04-28T15:47:05.182Z,2.70
2023-04-28T16:04:31.203Z,2.70
2023-04-28T16:07:02.552Z,2.60
2023-04-28T16:09:30.092Z,1.90
2023-04-28T16:11:59.832Z,2.20
2023-04-28T16:14:27.062Z,2.20
2023-04-28T16:16:57.233Z,1.70
2023-04-28T16:19:26.153Z,2.80
2023-04-28T16:21:53.619Z,4.20
2023-04-28T16:24:22.511Z,4.80
2023-04-28T16:26:51.413Z,6.30
2023-04-28T16:29:18.856Z,8.00
2023-04-28T16:31:45.972Z,4.00
2023-04-28T16:34:13.969Z,2.90
2023-04-28T16:36:41.894Z,2.40
2023-04-28T16:39:09.635Z,3.00
2023-04-28T16:41:37.761Z,3.20
2023-04-28T16:44:05.887Z,3.10
2023-04-28T16:46:33.067Z,2.80
2023-04-28T16:49:00.549Z,3.20
2023-04-28T16:51:28.472Z,2.70
2023-04-28T16:53:55.882Z,3.10
2023-04-28T16:56:27.630Z,1.90
2023-04-28T16:58:54.698Z,2.40
2023-04-28T17:01:22.142Z,3.70
2023-04-28T17:03:53.175Z,3.50
2023-04-28T17:06:28.171Z,2.20
2023-04-28T17:08:55.265Z,3.50
2023-04-28T17:11:22.872Z,2.50
2023-04-28T17:13:50.997Z,3.40
2023-04-28T17:16:19.718Z,3.20
2023-04-28T17:18:47.839Z,3.40
2023-04-28T17:21:14.997Z,3.60
2023-04-28T17:23:42.784Z,2.80
2023-04-28T17:26:11.989Z,4.60
2023-04-28T17:28:41.456Z,3.90
2023-04-28T17:31:08.733Z,4.60
2023-04-28T17:33:35.882Z,4.60
2023-04-28T17:36:03.617Z,5.10
2023-04-28T17:38:31.390Z,6.00
2023-04-28T17:40:58.604Z,4.60
2023-04-28T17:43:26.055Z,5.20
2023-04-28T17:45:54.387Z,4.90
2023-04-28T17:48:23.161Z,4.90
2023-04-28T17:50:50.356Z,4.30
2023-04-28T17:53:18.188Z,3.90
2023-04-28T17:55:46.751Z,3.90
2023-04-28T17:58:13.802Z,3.00
2023-04-28T18:00:42.099Z,4.80
2023-04-28T18:03:09.175Z,4.10
2023-04-28T18:05:44.921Z,4.50
2023-04-28T18:08:13.974Z,4.60
2023-04-28T18:10:42.757Z,4.50
2023-04-28T18:13:10.685Z,4.20
2023-04-28T18:15:37.881Z,4.70
2023-04-28T18:18:06.871Z,3.30
2023-04-28T18:20:33.853Z,3.90
2023-04-28T18:23:02.196Z,4.30
2023-04-28T18:25:32.354Z,4.30
2023-04-28T18:27:59.970Z,3.90
2023-04-28T18:30:40.846Z,6.10
2023-04-28T18:33:08.748Z,5.80
2023-04-28T18:35:39.805Z,7.20
2023-04-28T18:38:07.921Z,5.80
2023-04-28T18:40:38.861Z,6.20
2023-04-28T18:43:10.576Z,7.50
2023-04-28T18:45:39.581Z,9.00
2023-04-28T18:48:08.006Z,8.20
2023-04-28T18:50:36.362Z,8.60
2023-04-28T18:53:04.531Z,10.40
2023-04-28T18:55:35.069Z,11.00
2023-04-28T18:58:02.367Z,10.60
2023-04-28T19:00:35.699Z,11.70
2023-04-28T19:03:04.513Z,10.00
2023-04-28T19:05:31.890Z,7.90
2023-04-28T19:07:58.816Z,9.70
2023-04-28T19:10:25.997Z,7.80
2023-04-28T19:12:53.214Z,7.40
2023-04-28T19:15:20.868Z,8.00
2023-04-28T19:17:48.048Z,6.20
2023-04-28T19:20:15.982Z,8.80
2023-04-28T19:22:46.776Z,9.10
2023-04-28T19:27:41.440Z,6.10
2023-04-28T19:30:11.070Z,5.50
2023-04-28T19:32:39.874Z,5.50
2023-04-28T19:35:07.494Z,6.00
2023-04-28T19:37:35.366Z,5.50
2023-04-28T19:40:05.155Z,6.20
2023-04-28T19:42:33.744Z,6.40
2023-04-28T19:45:00.805Z,7.50
2023-04-28T19:47:33.079Z,9.60
2023-04-28T19:50:00.975Z,8.50
2023-04-28T19:52:28.904Z,9.60
2023-04-28T19:54:56.116Z,9.10
2023-04-28T19:57:24.373Z,7.80
2023-04-28T19:59:52.179Z,8.40
2023-04-28T20:02:21.323Z,7.00
2023-04-28T20:04:51.849Z,6.20
2023-04-28T20:07:21.927Z,7.30
2023-04-28T20:09:50.116Z,6.00
2023-04-28T20:12:19.729Z,6.10
2023-04-28T20:14:47.377Z,5.60
2023-04-28T20:17:14.358Z,6.50
2023-04-28T20:19:42.487Z,5.90
2023-04-28T20:22:10.048Z,5.90
2023-04-28T20:24:39.540Z,6.30
2023-04-28T20:27:06.602Z,6.40
2023-04-28T20:29:37.707Z,5.70
2023-04-28T20:32:05.010Z,5.70
2023-04-28T20:34:34.085Z,7.40
2023-04-28T20:37:03.694Z,7.80
2023-04-28T20:39:31.158Z,7.00
2023-04-28T20:41:59.983Z,6.30
2023-04-28T20:44:27.949Z,7.20
2023-04-28T20:46:55.526Z,7.60
2023-04-28T20:49:22.809Z,8.00
2023-04-28T20:51:51.215Z,8.00
2023-04-28T20:54:18.961Z,9.60
2023-04-28T20:56:45.952Z,7.60
2023-04-28T20:59:14.822Z,6.10
2023-04-28T21:01:41.938Z,8.90
2023-04-28T21:04:10.098Z,7.00
2023-04-28T21:06:38.513Z,6.60
2023-04-28T21:09:05.546Z,6.80
2023-04-28T21:11:32.823Z,6.90
2023-04-28T21:14:00.169Z,9.60
2023-04-28T21:16:27.883Z,10.50
2023-04-28T21:18:55.166Z,12.00
2023-04-28T21:21:22.977Z,9.20
2023-04-28T21:23:50.916Z,8.50
2023-04-28T21:26:20.508Z,9.60
2023-04-28T21:28:47.925Z,8.30
2023-04-28T21:31:14.827Z,8.40
2023-04-28T21:33:44.805Z,9.30
2023-04-28T21:36:12.113Z,12.10
2023-04-28T21:38:42.706Z,12.30
2023-04-28T21:41:12.614Z,14.00
2023-04-28T21:43:40.699Z,11.50
2023-04-28T21:46:08.018Z,11.40
2023-04-28T21:48:37.534Z,12.80
2023-04-28T21:51:05.016Z,11.50
2023-04-28T21:53:32.967Z,10.10
2023-04-28T21:56:00.888Z,9.90
2023-04-28T21:58:28.205Z,9.20
2023-04-28T22:00:55.364Z,7.30
2023-04-28T22:03:23.024Z,6.60
2023-04-28T22:05:51.382Z,8.20
2023-04-28T22:08:19.083Z,8.70
2023-04-28T22:10:47.013Z,8.80
2023-04-28T22:15:44.027Z,7.60
2023-04-28T22:18:12.773Z,8.50
2023-04-28T22:20:40.575Z,9.40
2023-04-28T22:23:08.408Z,9.70
2023-04-28T22:25:35.948Z,8.30
2023-04-28T22:28:05.910Z,8.20
2023-04-28T22:30:33.122Z,7.80
2023-04-28T22:33:00.283Z,8.20
2023-04-28T22:35:28.276Z,6.10
2023-04-28T22:37:56.917Z,8.40
2023-04-28T22:40:23.913Z,7.30
2023-04-28T22:50:50.269Z,6.70
2023-04-28T22:53:18.211Z,7.80
2023-04-28T22:55:45.880Z,8.10
2023-04-28T22:58:12.905Z,6.90
2023-04-28T23:00:39.826Z,7.10
2023-04-28T23:03:06.935Z,6.80
2023-04-28T23:05:40.367Z,5.40
2023-04-28T23:08:07.901Z,7.50
2023-04-28T23:10:35.012Z,7.20
2023-04-28T23:13:02.060Z,10.50
2023-04-28T23:15:29.821Z,9.00
2023-04-28T23:17:56.846Z,7.60
2023-04-28T23:20:24.953Z,9.70
2023-04-28T23:22:52.714Z,8.80
2023-04-28T23:25:19.703Z,10.60
2023-04-28T23:27:48.675Z,7.00
2023-04-28T23:30:16.086Z,8.80
2023-04-28T23:32:44.174Z,9.60
2023-04-28T23:35:11.216Z,9.40
2023-04-28T23:37:38.984Z,9.70
2023-04-28T23:40:06.821Z,9.00
2023-04-28T23:42:33.994Z,8.90
2023-04-28T23:45:01.677Z,7.30
2023-04-28T23:47:30.780Z,8.30
2023-04-28T23:49:59.009Z,8.40
2023-04-28T23:52:27.233Z,7.00
2023-04-28T23:54:54.055Z,8.50
2023-04-28T23:57:21.250Z,8.10
